sensor_id;sensor_type;location;lat;lon;timestamp;P1;durP1;ratioP1;P2;durP2;ratioP2
24873;SDS011;12945;42.648;23.370;2023-05-10T00:02:15;12.35;;;8.13;;
24873;SDS011;12945;42.648;23.370;2023-05-10T00:04:41;13.38;;;8.75;;
24873;SDS011;12945;42.648;23.370;2023-05-10T00:07:06;9.40;;;7.75;;
24873;SDS011;12945;42.648;23.370;2023-05-10T00:09:31;10.05;;;7.80;;
24873;SDS011;12945;42.648;23.370;2023-05-10T00:11:57;10.65;;;8.45;;
24873;SDS011;12945;42.648;23.370;2023-05-10T00:14:23;10.65;;;7.75;;
24873;SDS011;12945;42.648;23.370;2023-05-10T00:16:50;9.43;;;7.75;;
24873;SDS011;12945;42.648;23.370;2023-05-10T00:19:16;8.60;;;7.55;;
24873;SDS011;12945;42.648;23.370;2023-05-10T00:21:41;9.30;;;8.27;;
24873;SDS011;12945;42.648;23.370;2023-05-10T00:24:06;10.32;;;8.40;;
24873;SDS011;12945;42.648;23.370;2023-05-10T00:26:32;10.55;;;8.52;;
24873;SDS011;12945;42.648;23.370;2023-05-10T00:28:57;9.85;;;8.75;;
24873;SDS011;12945;42.648;23.370;2023-05-10T00:31:23;10.55;;;8.93;;
24873;SDS011;12945;42.648;23.370;2023-05-10T00:33:48;10.75;;;8.93;;
24873;SDS011;12945;42.648;23.370;2023-05-10T00:36:14;11.45;;;9.50;;
24873;SDS011;12945;42.648;23.370;2023-05-10T00:38:39;10.45;;;9.35;;
24873;SDS011;12945;42.648;23.370;2023-05-10T00:41:05;11.88;;;9.95;;
24873;SDS011;12945;42.648;23.370;2023-05-10T00:43:31;12.55;;;10.48;;
24873;SDS011;12945;42.648;23.370;2023-05-10T00:45:56;13.70;;;10.88;;
24873;SDS011;12945;42.648;23.370;2023-05-10T00:48:22;12.75;;;10.38;;
24873;SDS011;12945;42.648;23.370;2023-05-10T00:50:47;11.80;;;10.00;;
24873;SDS011;12945;42.648;23.370;2023-05-10T00:53:12;14.00;;;10.52;;
24873;SDS011;12945;42.648;23.370;2023-05-10T00:55:38;15.35;;;10.60;;
24873;SDS011;12945;42.648;23.370;2023-05-10T00:58:04;11.95;;;10.25;;
24873;SDS011;12945;42.648;23.370;2023-05-10T01:00:29;13.00;;;10.82;;
24873;SDS011;12945;42.648;23.370;2023-05-10T01:02:55;15.93;;;10.98;;
24873;SDS011;12945;42.648;23.370;2023-05-10T01:05:20;12.13;;;10.07;;
24873;SDS011;12945;42.648;23.370;2023-05-10T01:07:45;13.57;;;10.95;;
24873;SDS011;12945;42.648;23.370;2023-05-10T01:10:11;12.52;;;10.27;;
24873;SDS011;12945;42.648;23.370;2023-05-10T01:12:37;11.63;;;10.15;;
24873;SDS011;12945;42.648;23.370;2023-05-10T01:15:03;12.07;;;10.25;;
24873;SDS011;12945;42.648;23.370;2023-05-10T01:17:29;12.85;;;11.15;;
24873;SDS011;12945;42.648;23.370;2023-05-10T01:19:55;13.70;;;10.85;;
24873;SDS011;12945;42.648;23.370;2023-05-10T01:30:46;11.70;;;8.75;;
24873;SDS011;12945;42.648;23.370;2023-05-10T01:33:19;11.00;;;8.13;;
24873;SDS011;12945;42.648;23.370;2023-05-10T01:35:47;10.73;;;7.97;;
24873;SDS011;12945;42.648;23.370;2023-05-10T01:38:17;12.70;;;8.27;;
24873;SDS011;12945;42.648;23.370;2023-05-10T01:43:28;9.00;;;7.38;;
24873;SDS011;12945;42.648;23.370;2023-05-10T01:48:24;9.65;;;6.20;;
24873;SDS011;12945;42.648;23.370;2023-05-10T01:50:50;7.75;;;6.20;;
24873;SDS011;12945;42.648;23.370;2023-05-10T01:53:17;8.20;;;6.05;;
24873;SDS011;12945;42.648;23.370;2023-05-10T01:55:47;7.68;;;5.88;;
24873;SDS011;12945;42.648;23.370;2023-05-10T01:58:15;6.72;;;6.03;;
24873;SDS011;12945;42.648;23.370;2023-05-10T02:00:45;6.93;;;6.10;;
24873;SDS011;12945;42.648;23.370;2023-05-10T02:03:12;7.18;;;5.90;;
24873;SDS011;12945;42.648;23.370;2023-05-10T02:05:38;8.15;;;6.55;;
24873;SDS011;12945;42.648;23.370;2023-05-10T02:08:07;11.38;;;6.07;;
24873;SDS011;12945;42.648;23.370;2023-05-10T02:10:34;8.23;;;6.10;;
24873;SDS011;12945;42.648;23.370;2023-05-10T02:12:59;7.53;;;5.85;;
24873;SDS011;12945;42.648;23.370;2023-05-10T02:15:26;6.22;;;5.57;;
24873;SDS011;12945;42.648;23.370;2023-05-10T02:17:51;7.38;;;5.93;;
24873;SDS011;12945;42.648;23.370;2023-05-10T02:20:17;13.10;;;6.10;;
24873;SDS011;12945;42.648;23.370;2023-05-10T02:22:44;8.02;;;6.07;;
24873;SDS011;12945;42.648;23.370;2023-05-10T02:25:10;7.72;;;5.72;;
24873;SDS011;12945;42.648;23.370;2023-05-10T02:27:37;9.23;;;6.50;;
24873;SDS011;12945;42.648;23.370;2023-05-10T02:30:02;8.55;;;5.43;;
24873;SDS011;12945;42.648;23.370;2023-05-10T02:32:28;8.02;;;5.97;;
24873;SDS011;12945;42.648;23.370;2023-05-10T02:34:54;11.98;;;5.70;;
24873;SDS011;12945;42.648;23.370;2023-05-10T02:37:20;9.60;;;5.93;;
24873;SDS011;12945;42.648;23.370;2023-05-10T02:39:49;10.18;;;6.72;;
24873;SDS011;12945;42.648;23.370;2023-05-10T02:42:16;11.02;;;5.95;;
24873;SDS011;12945;42.648;23.370;2023-05-10T02:44:42;12.18;;;5.78;;
24873;SDS011;12945;42.648;23.370;2023-05-10T02:47:08;8.38;;;5.60;;
24873;SDS011;12945;42.648;23.370;2023-05-10T02:49:33;9.10;;;5.90;;
24873;SDS011;12945;42.648;23.370;2023-05-10T02:52:00;9.50;;;6.25;;
24873;SDS011;12945;42.648;23.370;2023-05-10T02:54:29;9.05;;;6.38;;
24873;SDS011;12945;42.648;23.370;2023-05-10T02:56:56;9.75;;;6.05;;
24873;SDS011;12945;42.648;23.370;2023-05-10T02:59:22;8.70;;;6.15;;
24873;SDS011;12945;42.648;23.370;2023-05-10T03:01:47;10.77;;;6.20;;
24873;SDS011;12945;42.648;23.370;2023-05-10T03:04:12;9.38;;;6.55;;
24873;SDS011;12945;42.648;23.370;2023-05-10T03:06:38;11.30;;;6.15;;
24873;SDS011;12945;42.648;23.370;2023-05-10T03:09:03;14.63;;;6.88;;
24873;SDS011;12945;42.648;23.370;2023-05-10T03:16:49;8.95;;;6.13;;
24873;SDS011;12945;42.648;23.370;2023-05-10T03:19:27;10.23;;;5.93;;
24873;SDS011;12945;42.648;23.370;2023-05-10T03:21:55;9.43;;;6.95;;
24873;SDS011;12945;42.648;23.370;2023-05-10T03:24:24;12.82;;;6.53;;
24873;SDS011;12945;42.648;23.370;2023-05-10T03:26:50;11.10;;;6.13;;
24873;SDS011;12945;42.648;23.370;2023-05-10T03:29:17;8.27;;;6.47;;
24873;SDS011;12945;42.648;23.370;2023-05-10T03:31:43;8.77;;;6.30;;
24873;SDS011;12945;42.648;23.370;2023-05-10T03:34:08;8.75;;;6.22;;
24873;SDS011;12945;42.648;23.370;2023-05-10T03:36:34;9.02;;;6.10;;
24873;SDS011;12945;42.648;23.370;2023-05-10T03:38:59;10.35;;;6.22;;
24873;SDS011;12945;42.648;23.370;2023-05-10T03:41:24;9.52;;;5.85;;
24873;SDS011;12945;42.648;23.370;2023-05-10T03:43:50;11.23;;;5.55;;
24873;SDS011;12945;42.648;23.370;2023-05-10T03:46:15;8.13;;;6.18;;
24873;SDS011;12945;42.648;23.370;2023-05-10T03:48:41;11.43;;;5.95;;
24873;SDS011;12945;42.648;23.370;2023-05-10T03:51:06;11.30;;;6.18;;
24873;SDS011;12945;42.648;23.370;2023-05-10T03:53:31;9.85;;;6.68;;
24873;SDS011;12945;42.648;23.370;2023-05-10T03:55:56;11.38;;;5.95;;
24873;SDS011;12945;42.648;23.370;2023-05-10T03:58:22;11.02;;;6.20;;
24873;SDS011;12945;42.648;23.370;2023-05-10T04:00:47;11.00;;;6.38;;
24873;SDS011;12945;42.648;23.370;2023-05-10T04:03:12;10.60;;;6.22;;
24873;SDS011;12945;42.648;23.370;2023-05-10T04:05:37;13.13;;;6.00;;
24873;SDS011;12945;42.648;23.370;2023-05-10T04:08:03;13.70;;;6.50;;
24873;SDS011;12945;42.648;23.370;2023-05-10T04:10:29;10.40;;;6.07;;
24873;SDS011;12945;42.648;23.370;2023-05-10T04:12:54;9.25;;;6.55;;
24873;SDS011;12945;42.648;23.370;2023-05-10T04:15:19;11.07;;;6.70;;
24873;SDS011;12945;42.648;23.370;2023-05-10T04:17:45;9.35;;;6.55;;
24873;SDS011;12945;42.648;23.370;2023-05-10T04:20:10;10.07;;;6.50;;
24873;SDS011;12945;42.648;23.370;2023-05-10T04:22:35;9.35;;;6.10;;
24873;SDS011;12945;42.648;23.370;2023-05-10T04:25:01;8.07;;;6.20;;
24873;SDS011;12945;42.648;23.370;2023-05-10T04:27:26;9.35;;;6.57;;
24873;SDS011;12945;42.648;23.370;2023-05-10T04:29:52;10.60;;;6.90;;
24873;SDS011;12945;42.648;23.370;2023-05-10T04:32:17;10.00;;;6.50;;
24873;SDS011;12945;42.648;23.370;2023-05-10T04:34:43;14.23;;;6.45;;
24873;SDS011;12945;42.648;23.370;2023-05-10T04:37:08;17.65;;;7.30;;
24873;SDS011;12945;42.648;23.370;2023-05-10T04:39:33;10.27;;;6.78;;
24873;SDS011;12945;42.648;23.370;2023-05-10T04:42:00;10.95;;;7.00;;
24873;SDS011;12945;42.648;23.370;2023-05-10T04:44:25;12.38;;;7.40;;
24873;SDS011;12945;42.648;23.370;2023-05-10T04:46:50;10.15;;;7.35;;
24873;SDS011;12945;42.648;23.370;2023-05-10T04:49:16;9.90;;;6.80;;
24873;SDS011;12945;42.648;23.370;2023-05-10T04:51:41;9.35;;;6.55;;
24873;SDS011;12945;42.648;23.370;2023-05-10T04:54:06;9.98;;;6.72;;
24873;SDS011;12945;42.648;23.370;2023-05-10T04:56:32;9.30;;;7.07;;
24873;SDS011;12945;42.648;23.370;2023-05-10T04:58:57;10.98;;;6.50;;
24873;SDS011;12945;42.648;23.370;2023-05-10T05:01:22;12.57;;;6.95;;
24873;SDS011;12945;42.648;23.370;2023-05-10T05:03:48;15.07;;;7.40;;
24873;SDS011;12945;42.648;23.370;2023-05-10T05:06:13;11.40;;;6.97;;
24873;SDS011;12945;42.648;23.370;2023-05-10T05:08:38;16.50;;;7.18;;
24873;SDS011;12945;42.648;23.370;2023-05-10T05:11:04;11.73;;;7.32;;
24873;SDS011;12945;42.648;23.370;2023-05-10T05:13:29;13.32;;;7.70;;
24873;SDS011;12945;42.648;23.370;2023-05-10T05:15:54;11.27;;;7.50;;
24873;SDS011;12945;42.648;23.370;2023-05-10T05:18:20;12.32;;;7.70;;
24873;SDS011;12945;42.648;23.370;2023-05-10T05:20:45;11.90;;;7.68;;
24873;SDS011;12945;42.648;23.370;2023-05-10T05:23:11;10.57;;;7.20;;
24873;SDS011;12945;42.648;23.370;2023-05-10T05:25:36;15.57;;;8.25;;
24873;SDS011;12945;42.648;23.370;2023-05-10T05:28:01;11.40;;;8.27;;
24873;SDS011;12945;42.648;23.370;2023-05-10T05:30:27;11.13;;;7.95;;
24873;SDS011;12945;42.648;23.370;2023-05-10T05:32:52;13.15;;;7.63;;
24873;SDS011;12945;42.648;23.370;2023-05-10T05:35:17;17.25;;;8.63;;
24873;SDS011;12945;42.648;23.370;2023-05-10T05:37:43;15.35;;;9.25;;
24873;SDS011;12945;42.648;23.370;2023-05-10T05:40:11;16.08;;;8.45;;
24873;SDS011;12945;42.648;23.370;2023-05-10T05:42:37;13.07;;;9.10;;
24873;SDS011;12945;42.648;23.370;2023-05-10T05:45:03;11.50;;;9.23;;
24873;SDS011;12945;42.648;23.370;2023-05-10T05:47:29;15.18;;;8.73;;
24873;SDS011;12945;42.648;23.370;2023-05-10T05:49:54;14.15;;;9.63;;
24873;SDS011;12945;42.648;23.370;2023-05-10T05:52:20;13.38;;;9.32;;
24873;SDS011;12945;42.648;23.370;2023-05-10T05:54:46;19.48;;;9.40;;
24873;SDS011;12945;42.648;23.370;2023-05-10T05:57:11;18.95;;;9.90;;
24873;SDS011;12945;42.648;23.370;2023-05-10T05:59:37;15.27;;;10.80;;
24873;SDS011;12945;42.648;23.370;2023-05-10T06:02:07;14.10;;;8.32;;
24873;SDS011;12945;42.648;23.370;2023-05-10T06:04:32;17.25;;;10.85;;
24873;SDS011;12945;42.648;23.370;2023-05-10T06:06:57;19.83;;;11.90;;
24873;SDS011;12945;42.648;23.370;2023-05-10T06:09:23;15.43;;;11.40;;
24873;SDS011;12945;42.648;23.370;2023-05-10T06:11:49;19.55;;;11.95;;
24873;SDS011;12945;42.648;23.370;2023-05-10T06:14:14;19.58;;;11.90;;
24873;SDS011;12945;42.648;23.370;2023-05-10T06:16:40;18.33;;;12.20;;
24873;SDS011;12945;42.648;23.370;2023-05-10T06:19:05;22.23;;;13.10;;
24873;SDS011;12945;42.648;23.370;2023-05-10T06:21:30;17.02;;;11.80;;
24873;SDS011;12945;42.648;23.370;2023-05-10T06:23:56;18.33;;;12.25;;
24873;SDS011;12945;42.648;23.370;2023-05-10T06:26:21;20.38;;;13.13;;
24873;SDS011;12945;42.648;23.370;2023-05-10T06:28:46;15.35;;;11.52;;
24873;SDS011;12945;42.648;23.370;2023-05-10T06:31:12;19.17;;;11.70;;
24873;SDS011;12945;42.648;23.370;2023-05-10T06:33:37;19.33;;;11.82;;
24873;SDS011;12945;42.648;23.370;2023-05-10T06:36:02;23.35;;;12.52;;
24873;SDS011;12945;42.648;23.370;2023-05-10T06:38:28;17.95;;;11.93;;
24873;SDS011;12945;42.648;23.370;2023-05-10T06:40:53;17.60;;;11.27;;
24873;SDS011;12945;42.648;23.370;2023-05-10T06:43:18;18.33;;;10.77;;
24873;SDS011;12945;42.648;23.370;2023-05-10T06:45:44;15.77;;;10.65;;
24873;SDS011;12945;42.648;23.370;2023-05-10T06:48:09;14.65;;;10.30;;
24873;SDS011;12945;42.648;23.370;2023-05-10T06:50:34;17.48;;;10.35;;
24873;SDS011;12945;42.648;23.370;2023-05-10T06:53:00;16.77;;;10.65;;
24873;SDS011;12945;42.648;23.370;2023-05-10T06:55:26;13.65;;;9.63;;
24873;SDS011;12945;42.648;23.370;2023-05-10T06:57:52;14.02;;;9.70;;
24873;SDS011;12945;42.648;23.370;2023-05-10T07:00:18;15.68;;;9.68;;
24873;SDS011;12945;42.648;23.370;2023-05-10T07:02:43;13.27;;;8.68;;
24873;SDS011;12945;42.648;23.370;2023-05-10T07:05:09;18.77;;;11.15;;
24873;SDS011;12945;42.648;23.370;2023-05-10T07:07:34;19.83;;;10.77;;
24873;SDS011;12945;42.648;23.370;2023-05-10T07:10:00;19.40;;;10.80;;
24873;SDS011;12945;42.648;23.370;2023-05-10T07:12:25;15.25;;;10.43;;
24873;SDS011;12945;42.648;23.370;2023-05-10T07:14:51;17.27;;;11.15;;
24873;SDS011;12945;42.648;23.370;2023-05-10T07:17:16;14.82;;;10.60;;
24873;SDS011;12945;42.648;23.370;2023-05-10T07:19:41;15.70;;;10.20;;
24873;SDS011;12945;42.648;23.370;2023-05-10T07:22:07;20.88;;;11.00;;
24873;SDS011;12945;42.648;23.370;2023-05-10T07:24:33;15.75;;;10.13;;
24873;SDS011;12945;42.648;23.370;2023-05-10T07:26:59;14.27;;;9.88;;
24873;SDS011;12945;42.648;23.370;2023-05-10T07:29:25;15.13;;;9.98;;
24873;SDS011;12945;42.648;23.370;2023-05-10T07:31:50;15.10;;;9.95;;
24873;SDS011;12945;42.648;23.370;2023-05-10T07:34:16;16.75;;;9.93;;
24873;SDS011;12945;42.648;23.370;2023-05-10T07:36:42;19.73;;;11.45;;
24873;SDS011;12945;42.648;23.370;2023-05-10T07:39:08;21.83;;;12.68;;
24873;SDS011;12945;42.648;23.370;2023-05-10T07:41:33;15.65;;;10.73;;
24873;SDS011;12945;42.648;23.370;2023-05-10T07:43:58;16.80;;;10.60;;
24873;SDS011;12945;42.648;23.370;2023-05-10T07:46:24;15.38;;;11.18;;
24873;SDS011;12945;42.648;23.370;2023-05-10T07:48:49;17.05;;;11.50;;
24873;SDS011;12945;42.648;23.370;2023-05-10T07:51:15;17.90;;;10.98;;
24873;SDS011;12945;42.648;23.370;2023-05-10T07:53:41;14.50;;;10.70;;
24873;SDS011;12945;42.648;23.370;2023-05-10T07:59:05;14.68;;;11.23;;
24873;SDS011;12945;42.648;23.370;2023-05-10T08:01:32;19.90;;;11.95;;
24873;SDS011;12945;42.648;23.370;2023-05-10T08:03:58;14.05;;;11.55;;
24873;SDS011;12945;42.648;23.370;2023-05-10T08:06:23;19.92;;;12.80;;
24873;SDS011;12945;42.648;23.370;2023-05-10T08:08:48;19.00;;;12.05;;
24873;SDS011;12945;42.648;23.370;2023-05-10T08:11:18;16.33;;;11.60;;
24873;SDS011;12945;42.648;23.370;2023-05-10T08:13:44;20.17;;;11.23;;
24873;SDS011;12945;42.648;23.370;2023-05-10T08:16:09;19.15;;;11.68;;
24873;SDS011;12945;42.648;23.370;2023-05-10T08:18:34;13.05;;;10.45;;
24873;SDS011;12945;42.648;23.370;2023-05-10T08:21:00;15.73;;;9.85;;
24873;SDS011;12945;42.648;23.370;2023-05-10T08:23:25;12.15;;;10.23;;
24873;SDS011;12945;42.648;23.370;2023-05-10T08:25:50;19.17;;;9.43;;
24873;SDS011;12945;42.648;23.370;2023-05-10T08:28:16;16.42;;;10.25;;
24873;SDS011;12945;42.648;23.370;2023-05-10T08:30:41;14.90;;;9.23;;
24873;SDS011;12945;42.648;23.370;2023-05-10T08:33:06;15.60;;;10.75;;
24873;SDS011;12945;42.648;23.370;2023-05-10T08:35:32;15.07;;;10.27;;
24873;SDS011;12945;42.648;23.370;2023-05-10T08:37:59;14.90;;;10.27;;
24873;SDS011;12945;42.648;23.370;2023-05-10T08:40:24;15.82;;;11.48;;
24873;SDS011;12945;42.648;23.370;2023-05-10T08:42:53;16.02;;;11.05;;
24873;SDS011;12945;42.648;23.370;2023-05-10T08:45:19;14.80;;;10.15;;
24873;SDS011;12945;42.648;23.370;2023-05-10T08:47:46;17.60;;;10.75;;
24873;SDS011;12945;42.648;23.370;2023-05-10T08:50:12;19.33;;;12.45;;
24873;SDS011;12945;42.648;23.370;2023-05-10T08:52:38;17.10;;;11.32;;
24873;SDS011;12945;42.648;23.370;2023-05-10T08:55:05;18.60;;;11.52;;
24873;SDS011;12945;42.648;23.370;2023-05-10T08:57:30;17.92;;;12.32;;
24873;SDS011;12945;42.648;23.370;2023-05-10T09:02:59;15.82;;;12.00;;
24873;SDS011;12945;42.648;23.370;2023-05-10T09:05:24;14.23;;;10.95;;
24873;SDS011;12945;42.648;23.370;2023-05-10T09:07:50;14.32;;;10.50;;
24873;SDS011;12945;42.648;23.370;2023-05-10T09:10:15;14.10;;;10.95;;
24873;SDS011;12945;42.648;23.370;2023-05-10T09:12:42;14.15;;;10.95;;
24873;SDS011;12945;42.648;23.370;2023-05-10T09:15:09;14.73;;;11.50;;
24873;SDS011;12945;42.648;23.370;2023-05-10T09:17:34;16.67;;;11.90;;
24873;SDS011;12945;42.648;23.370;2023-05-10T09:20:01;15.75;;;12.32;;
24873;SDS011;12945;42.648;23.370;2023-05-10T09:22:27;15.45;;;10.80;;
24873;SDS011;12945;42.648;23.370;2023-05-10T09:27:30;17.27;;;10.77;;
24873;SDS011;12945;42.648;23.370;2023-05-10T09:29:55;13.93;;;10.68;;
24873;SDS011;12945;42.648;23.370;2023-05-10T09:32:20;17.30;;;10.80;;
24873;SDS011;12945;42.648;23.370;2023-05-10T09:34:46;16.15;;;11.40;;
24873;SDS011;12945;42.648;23.370;2023-05-10T09:37:14;13.60;;;10.05;;
24873;SDS011;12945;42.648;23.370;2023-05-10T09:39:39;16.27;;;11.25;;
24873;SDS011;12945;42.648;23.370;2023-05-10T09:42:07;13.23;;;10.40;;
24873;SDS011;12945;42.648;23.370;2023-05-10T09:44:33;15.48;;;10.63;;
24873;SDS011;12945;42.648;23.370;2023-05-10T09:46:59;13.07;;;10.23;;
24873;SDS011;12945;42.648;23.370;2023-05-10T09:49:24;15.55;;;10.02;;
24873;SDS011;12945;42.648;23.370;2023-05-10T09:52:02;18.17;;;11.15;;
24873;SDS011;12945;42.648;23.370;2023-05-10T09:54:28;11.55;;;9.95;;
24873;SDS011;12945;42.648;23.370;2023-05-10T09:56:53;14.77;;;9.75;;
24873;SDS011;12945;42.648;23.370;2023-05-10T09:59:18;12.43;;;9.93;;
24873;SDS011;12945;42.648;23.370;2023-05-10T10:01:49;18.58;;;11.02;;
24873;SDS011;12945;42.648;23.370;2023-05-10T10:04:14;15.55;;;10.18;;
24873;SDS011;12945;42.648;23.370;2023-05-10T10:06:39;21.77;;;10.60;;
24873;SDS011;12945;42.648;23.370;2023-05-10T10:09:05;16.58;;;10.02;;
24873;SDS011;12945;42.648;23.370;2023-05-10T10:11:31;14.23;;;9.82;;
24873;SDS011;12945;42.648;23.370;2023-05-10T10:13:56;14.75;;;10.20;;
24873;SDS011;12945;42.648;23.370;2023-05-10T10:16:21;13.65;;;9.63;;
24873;SDS011;12945;42.648;23.370;2023-05-10T10:18:47;15.68;;;9.70;;
24873;SDS011;12945;42.648;23.370;2023-05-10T10:21:13;14.70;;;9.20;;
24873;SDS011;12945;42.648;23.370;2023-05-10T10:23:38;11.00;;;8.63;;
24873;SDS011;12945;42.648;23.370;2023-05-10T10:26:04;20.83;;;9.20;;
24873;SDS011;12945;42.648;23.370;2023-05-10T10:28:35;12.68;;;8.18;;
24873;SDS011;12945;42.648;23.370;2023-05-10T10:31:13;13.02;;;9.10;;
24873;SDS011;12945;42.648;23.370;2023-05-10T10:33:51;12.10;;;8.80;;
24873;SDS011;12945;42.648;23.370;2023-05-10T10:36:16;17.80;;;8.73;;
24873;SDS011;12945;42.648;23.370;2023-05-10T10:41:27;17.85;;;8.80;;
24873;SDS011;12945;42.648;23.370;2023-05-10T10:46:46;11.27;;;8.32;;
24873;SDS011;12945;42.648;23.370;2023-05-10T10:49:22;16.90;;;8.50;;
24873;SDS011;12945;42.648;23.370;2023-05-10T10:54:32;10.30;;;8.00;;
24873;SDS011;12945;42.648;23.370;2023-05-10T10:57:12;16.33;;;8.07;;
24873;SDS011;12945;42.648;23.370;2023-05-10T10:59:41;12.95;;;7.40;;
24873;SDS011;12945;42.648;23.370;2023-05-10T11:02:08;13.55;;;8.70;;
24873;SDS011;12945;42.648;23.370;2023-05-10T11:04:42;17.15;;;8.68;;
24873;SDS011;12945;42.648;23.370;2023-05-10T11:07:18;13.32;;;7.50;;
24873;SDS011;12945;42.648;23.370;2023-05-10T11:09:43;12.55;;;7.63;;
24873;SDS011;12945;42.648;23.370;2023-05-10T11:12:09;12.07;;;8.43;;
24873;SDS011;12945;42.648;23.370;2023-05-10T11:14:34;11.65;;;8.35;;
24873;SDS011;12945;42.648;23.370;2023-05-10T11:17:00;11.73;;;8.27;;
24873;SDS011;12945;42.648;23.370;2023-05-10T11:19:29;12.88;;;8.15;;
24873;SDS011;12945;42.648;23.370;2023-05-10T11:24:29;11.57;;;7.63;;
24873;SDS011;12945;42.648;23.370;2023-05-10T11:26:54;12.48;;;7.93;;
24873;SDS011;12945;42.648;23.370;2023-05-10T11:29:19;11.25;;;8.45;;
24873;SDS011;12945;42.648;23.370;2023-05-10T11:31:46;19.02;;;8.73;;
24873;SDS011;12945;42.648;23.370;2023-05-10T11:34:12;11.38;;;8.00;;
24873;SDS011;12945;42.648;23.370;2023-05-10T11:36:50;16.05;;;8.43;;
24873;SDS011;12945;42.648;23.370;2023-05-10T11:39:15;12.32;;;7.78;;
24873;SDS011;12945;42.648;23.370;2023-05-10T11:41:40;18.05;;;7.50;;
24873;SDS011;12945;42.648;23.370;2023-05-10T11:44:06;14.20;;;7.93;;
24873;SDS011;12945;42.648;23.370;2023-05-10T11:46:33;27.88;;;8.57;;
24873;SDS011;12945;42.648;23.370;2023-05-10T11:49:00;11.57;;;7.78;;
24873;SDS011;12945;42.648;23.370;2023-05-10T11:51:26;12.60;;;8.18;;
24873;SDS011;12945;42.648;23.370;2023-05-10T11:53:55;18.45;;;9.05;;
24873;SDS011;12945;42.648;23.370;2023-05-10T11:56:21;9.65;;;7.50;;
24873;SDS011;12945;42.648;23.370;2023-05-10T11:58:52;14.23;;;8.73;;
24873;SDS011;12945;42.648;23.370;2023-05-10T12:01:17;15.13;;;9.00;;
24873;SDS011;12945;42.648;23.370;2023-05-10T12:03:42;16.27;;;8.93;;
24873;SDS011;12945;42.648;23.370;2023-05-10T12:06:09;11.63;;;8.70;;
24873;SDS011;12945;42.648;23.370;2023-05-10T12:08:34;19.58;;;9.30;;
24873;SDS011;12945;42.648;23.370;2023-05-10T12:11:06;16.42;;;9.38;;
24873;SDS011;12945;42.648;23.370;2023-05-10T12:13:32;13.90;;;9.25;;
24873;SDS011;12945;42.648;23.370;2023-05-10T12:16:12;14.38;;;9.13;;
24873;SDS011;12945;42.648;23.370;2023-05-10T12:18:38;12.10;;;8.77;;
24873;SDS011;12945;42.648;23.370;2023-05-10T12:21:04;20.88;;;9.35;;
24873;SDS011;12945;42.648;23.370;2023-05-10T12:23:29;16.92;;;8.98;;
24873;SDS011;12945;42.648;23.370;2023-05-10T12:26:01;15.48;;;9.45;;
24873;SDS011;12945;42.648;23.370;2023-05-10T12:28:29;16.02;;;9.70;;
24873;SDS011;12945;42.648;23.370;2023-05-10T12:30:54;15.65;;;9.43;;
24873;SDS011;12945;42.648;23.370;2023-05-10T12:33:20;15.55;;;10.10;;
24873;SDS011;12945;42.648;23.370;2023-05-10T12:35:49;22.30;;;9.82;;
24873;SDS011;12945;42.648;23.370;2023-05-10T12:38:32;26.25;;;9.85;;
24873;SDS011;12945;42.648;23.370;2023-05-10T12:40:58;11.10;;;8.30;;
24873;SDS011;12945;42.648;23.370;2023-05-10T12:43:24;12.00;;;8.00;;
24873;SDS011;12945;42.648;23.370;2023-05-10T12:45:49;14.13;;;8.85;;
24873;SDS011;12945;42.648;23.370;2023-05-10T12:48:15;17.67;;;8.63;;
24873;SDS011;12945;42.648;23.370;2023-05-10T12:50:40;13.52;;;8.50;;
24873;SDS011;12945;42.648;23.370;2023-05-10T12:53:05;14.35;;;8.55;;
24873;SDS011;12945;42.648;23.370;2023-05-10T12:55:30;12.90;;;9.70;;
24873;SDS011;12945;42.648;23.370;2023-05-10T12:57:56;18.65;;;9.10;;
24873;SDS011;12945;42.648;23.370;2023-05-10T13:00:21;19.25;;;9.32;;
24873;SDS011;12945;42.648;23.370;2023-05-10T13:02:46;12.25;;;8.70;;
24873;SDS011;12945;42.648;23.370;2023-05-10T13:05:12;14.55;;;8.57;;
24873;SDS011;12945;42.648;23.370;2023-05-10T13:07:38;22.60;;;8.63;;
24873;SDS011;12945;42.648;23.370;2023-05-10T13:10:03;13.98;;;8.65;;
24873;SDS011;12945;42.648;23.370;2023-05-10T13:12:29;14.48;;;8.35;;
24873;SDS011;12945;42.648;23.370;2023-05-10T13:14:54;16.02;;;8.32;;
24873;SDS011;12945;42.648;23.370;2023-05-10T13:17:19;13.48;;;8.43;;
24873;SDS011;12945;42.648;23.370;2023-05-10T13:19:44;17.88;;;7.93;;
24873;SDS011;12945;42.648;23.370;2023-05-10T13:22:10;15.85;;;8.75;;
24873;SDS011;12945;42.648;23.370;2023-05-10T13:24:35;22.17;;;7.75;;
24873;SDS011;12945;42.648;23.370;2023-05-10T13:27:00;10.40;;;8.20;;
24873;SDS011;12945;42.648;23.370;2023-05-10T13:29:26;11.73;;;7.47;;
24873;SDS011;12945;42.648;23.370;2023-05-10T13:34:28;16.27;;;7.88;;
24873;SDS011;12945;42.648;23.370;2023-05-10T13:36:54;16.38;;;7.70;;
24873;SDS011;12945;42.648;23.370;2023-05-10T13:39:20;9.73;;;7.22;;
24873;SDS011;12945;42.648;23.370;2023-05-10T13:41:46;11.95;;;7.65;;
24873;SDS011;12945;42.648;23.370;2023-05-10T13:44:12;13.52;;;8.05;;
24873;SDS011;12945;42.648;23.370;2023-05-10T13:46:37;16.30;;;7.93;;
24873;SDS011;12945;42.648;23.370;2023-05-10T13:49:03;9.77;;;7.57;;
24873;SDS011;12945;42.648;23.370;2023-05-10T13:51:28;9.68;;;7.57;;
24873;SDS011;12945;42.648;23.370;2023-05-10T13:53:54;19.45;;;8.48;;
24873;SDS011;12945;42.648;23.370;2023-05-10T13:56:37;12.13;;;8.10;;
24873;SDS011;12945;42.648;23.370;2023-05-10T13:59:03;14.85;;;8.32;;
24873;SDS011;12945;42.648;23.370;2023-05-10T14:01:28;21.17;;;9.25;;
24873;SDS011;12945;42.648;23.370;2023-05-10T14:03:53;12.70;;;7.95;;
24873;SDS011;12945;42.648;23.370;2023-05-10T14:06:18;13.13;;;7.80;;
24873;SDS011;12945;42.648;23.370;2023-05-10T14:08:44;16.10;;;8.45;;
24873;SDS011;12945;42.648;23.370;2023-05-10T14:11:09;16.48;;;8.18;;
24873;SDS011;12945;42.648;23.370;2023-05-10T14:13:35;11.77;;;7.78;;
24873;SDS011;12945;42.648;23.370;2023-05-10T14:16:00;17.52;;;7.93;;
24873;SDS011;12945;42.648;23.370;2023-05-10T14:18:28;12.57;;;8.10;;
24873;SDS011;12945;42.648;23.370;2023-05-10T14:20:54;13.60;;;8.25;;
24873;SDS011;12945;42.648;23.370;2023-05-10T14:23:21;16.08;;;8.05;;
24873;SDS011;12945;42.648;23.370;2023-05-10T14:25:49;12.10;;;8.65;;
24873;SDS011;12945;42.648;23.370;2023-05-10T14:28:14;19.48;;;8.75;;
24873;SDS011;12945;42.648;23.370;2023-05-10T14:30:40;17.15;;;8.75;;
24873;SDS011;12945;42.648;23.370;2023-05-10T14:33:06;14.25;;;8.10;;
24873;SDS011;12945;42.648;23.370;2023-05-10T14:35:32;14.50;;;8.98;;
24873;SDS011;12945;42.648;23.370;2023-05-10T14:37:58;12.20;;;8.07;;
24873;SDS011;12945;42.648;23.370;2023-05-10T14:40:23;10.50;;;8.13;;
24873;SDS011;12945;42.648;23.370;2023-05-10T14:42:49;14.88;;;8.52;;
24873;SDS011;12945;42.648;23.370;2023-05-10T14:45:14;11.30;;;8.45;;
24873;SDS011;12945;42.648;23.370;2023-05-10T14:47:40;15.38;;;8.25;;
24873;SDS011;12945;42.648;23.370;2023-05-10T14:50:05;18.00;;;8.90;;
24873;SDS011;12945;42.648;23.370;2023-05-10T14:55:34;16.05;;;8.27;;
24873;SDS011;12945;42.648;23.370;2023-05-10T14:58:00;13.02;;;8.13;;